createdAt,value
2019-04-20T00:01:28.000Z,15.10
2019-04-20T00:03:53.545Z,15.10
2019-04-20T00:06:22.003Z,15.00
2019-04-20T00:08:55.714Z,14.90
2019-04-20T00:11:29.468Z,14.90
2019-04-20T00:14:00.100Z,14.80
2019-04-20T00:16:23.075Z,14.70
2019-04-20T00:18:55.297Z,14.60
2019-04-20T00:21:42.644Z,14.60
2019-04-20T00:24:21.048Z,14.50
2019-04-20T00:27:10.584Z,14.40
2019-04-20T00:29:35.456Z,14.30
2019-04-20T00:32:00.549Z,14.30
2019-04-20T00:34:22.839Z,14.30
2019-04-20T00:36:47.341Z,14.20
2019-04-20T00:39:17.209Z,14.20
2019-04-20T00:41:51.491Z,14.20
2019-04-20T00:44:23.362Z,14.20
2019-04-20T00:47:04.881Z,14.20
2019-04-20T00:49:30.691Z,14.10
2019-04-20T00:52:19.750Z,14.10
2019-04-20T00:54:20.256Z,14.00
2019-04-20T00:56:52.052Z,13.90
2019-04-20T00:59:35.537Z,13.90
2019-04-20T01:02:10.292Z,13.90
2019-04-20T01:04:40.936Z,13.80
2019-04-20T01:07:27.412Z,13.80
2019-04-20T01:10:08.970Z,13.80
2019-04-20T01:12:40.419Z,13.80
2019-04-20T01:15:11.838Z,13.70
2019-04-20T01:17:41.472Z,13.70
2019-04-20T01:20:10.242Z,13.60
2019-04-20T01:22:44.645Z,13.60
2019-04-20T01:25:20.671Z,13.40
2019-04-20T01:28:02.106Z,13.40
2019-04-20T01:30:21.058Z,13.40
2019-04-20T01:32:57.571Z,13.40
2019-04-20T01:35:34.504Z,13.30
2019-04-20T01:38:00.815Z,13.30
2019-04-20T01:40:15.012Z,13.20
2019-04-20T01:42:44.583Z,13.10
2019-04-20T01:45:21.477Z,13.00
2019-04-20T01:47:49.410Z,13.10
2019-04-20T01:50:20.995Z,13.10
2019-04-20T01:52:53.863Z,13.00
2019-04-20T01:55:42.495Z,12.90
2019-04-20T01:58:25.463Z,12.90
2019-04-20T02:01:13.688Z,12.80
2019-04-20T02:03:52.074Z,12.80
2019-04-20T02:06:22.270Z,12.70
2019-04-20T02:08:56.605Z,12.70
2019-04-20T02:11:25.965Z,12.70
2019-04-20T02:13:56.623Z,12.60
2019-04-20T02:16:28.803Z,12.60
2019-04-20T02:19:10.785Z,12.50
2019-04-20T02:21:38.243Z,12.50
2019-04-20T02:23:57.795Z,12.50
2019-04-20T02:26:24.006Z,12.50
2019-04-20T02:29:21.246Z,12.40
2019-04-20T02:32:07.635Z,12.30
2019-04-20T02:34:39.882Z,12.20
2019-04-20T02:39:51.431Z,12.10
2019-04-20T02:42:17.578Z,12.10
2019-04-20T02:44:44.258Z,12.10
2019-04-20T02:49:44.884Z,12.00
2019-04-20T02:52:19.112Z,11.90
2019-04-20T02:54:38.223Z,11.90
2019-04-20T02:57:14.351Z,11.80
2019-04-20T03:00:01.201Z,11.70
2019-04-20T03:01:59.081Z,11.70
2019-04-20T03:04:23.628Z,11.60
2019-04-20T03:06:58.363Z,11.60
2019-04-20T03:09:36.527Z,11.50
2019-04-20T03:12:08.102Z,11.50
2019-04-20T03:14:30.295Z,11.40
2019-04-20T03:17:13.479Z,11.40
2019-04-20T03:19:28.839Z,11.30
2019-04-20T03:22:08.902Z,11.30
2019-04-20T03:24:46.889Z,11.20
2019-04-20T03:27:15.838Z,11.00
2019-04-20T03:29:57.769Z,10.90
2019-04-20T03:35:30.153Z,10.90
2019-04-20T03:37:42.163Z,10.90
2019-04-20T03:40:06.871Z,10.90
2019-04-20T03:42:22.702Z,10.90
2019-04-20T03:44:57.064Z,10.80
2019-04-20T03:47:32.245Z,10.90
2019-04-20T03:50:10.741Z,10.90
2019-04-20T03:52:58.011Z,10.80
2019-04-20T03:55:26.178Z,10.80
2019-04-20T03:58:10.218Z,10.80
2019-04-20T04:00:54.561Z,10.80
2019-04-20T04:04:06.331Z,10.80
2019-04-20T04:06:24.178Z,10.80
2019-04-20T04:08:58.687Z,10.80
2019-04-20T04:11:31.255Z,10.80
2019-04-20T04:13:44.240Z,10.70
2019-04-20T04:16:16.408Z,10.70
2019-04-20T04:18:48.041Z,10.70
2019-04-20T04:21:22.071Z,10.70
2019-04-20T04:24:02.236Z,10.70
2019-04-20T04:26:34.150Z,10.60
2019-04-20T04:29:08.460Z,10.60
2019-04-20T04:31:41.268Z,10.70
2019-04-20T04:34:27.865Z,10.70
2019-04-20T04:36:38.708Z,10.70
2019-04-20T04:39:11.379Z,10.70
2019-04-20T04:41:36.486Z,10.80
2019-04-20T04:44:09.664Z,10.80
2019-04-20T04:46:20.728Z,10.80
2019-04-20T04:48:52.750Z,10.80
2019-04-20T04:51:24.715Z,10.80
2019-04-20T04:53:59.349Z,10.80
2019-04-20T04:56:23.932Z,10.80
2019-04-20T04:58:51.802Z,10.80
2019-04-20T05:01:27.376Z,10.90
2019-04-20T05:04:29.619Z,10.90
2019-04-20T05:06:41.416Z,10.90
2019-04-20T05:09:00.107Z,11.00
2019-04-20T05:11:25.818Z,11.00
2019-04-20T05:14:02.067Z,11.00
2019-04-20T05:16:46.027Z,11.00
2019-04-20T05:19:19.062Z,11.10
2019-04-20T05:22:04.046Z,11.10
2019-04-20T05:24:38.973Z,11.10
2019-04-20T05:27:34.831Z,11.00
2019-04-20T05:29:42.774Z,11.10
2019-04-20T05:32:16.875Z,11.20
2019-04-20T05:35:07.308Z,11.20
2019-04-20T05:37:41.935Z,11.20
2019-04-20T05:40:07.463Z,11.30
2019-04-20T05:42:35.876Z,11.40
2019-04-20T05:45:08.699Z,11.40
2019-04-20T05:47:41.516Z,11.50
2019-04-20T05:50:01.266Z,11.50
2019-04-20T05:55:09.978Z,11.50
2019-04-20T05:57:42.047Z,11.70
2019-04-20T06:00:17.350Z,11.70
2019-04-20T06:02:44.105Z,11.80
2019-04-20T06:05:22.412Z,11.90
2019-04-20T06:07:42.136Z,11.90
2019-04-20T06:10:20.432Z,12.00
2019-04-20T06:12:46.060Z,12.00
2019-04-20T06:15:40.387Z,12.10
2019-04-20T06:18:21.430Z,12.20
2019-04-20T06:21:00.086Z,12.20
2019-04-20T06:23:47.713Z,12.30
2019-04-20T06:26:39.402Z,12.40
2019-04-20T06:28:37.965Z,12.50
2019-04-20T06:31:14.763Z,12.60
2019-04-20T06:36:55.890Z,12.60
2019-04-20T06:39:30.930Z,12.80
2019-04-20T06:52:26.181Z,13.10
2019-04-20T06:55:22.038Z,13.10
2019-04-20T07:00:24.859Z,13.30
2019-04-20T07:05:20.754Z,13.60
2019-04-20T07:07:53.409Z,13.70
2019-04-20T07:12:48.102Z,14.00
2019-04-20T07:15:18.957Z,14.10
2019-04-20T07:18:00.264Z,14.30
2019-04-20T07:20:51.591Z,14.40
2019-04-20T07:23:22.384Z,14.50
2019-04-20T07:25:47.857Z,14.80
2019-04-20T07:28:24.319Z,15.00
2019-04-20T07:30:49.411Z,15.30
2019-04-20T07:33:21.741Z,15.80
2019-04-20T07:35:49.382Z,16.90
2019-04-20T07:40:51.322Z,19.50
2019-04-20T07:43:22.219Z,20.20
2019-04-20T07:45:51.683Z,20.90
2019-04-20T07:48:38.087Z,21.60
2019-04-20T07:50:46.270Z,22.40
2019-04-20T07:53:20.192Z,23.60
2019-04-20T07:56:02.456Z,24.50
2019-04-20T07:58:18.175Z,24.90
2019-04-20T08:01:09.019Z,24.20
2019-04-20T08:03:47.078Z,23.30
2019-04-20T08:06:23.262Z,22.90
2019-04-20T08:09:05.408Z,23.20
2019-04-20T08:11:41.101Z,23.40
2019-04-20T08:14:12.552Z,23.60
2019-04-20T08:16:47.106Z,24.00
2019-04-20T08:19:07.923Z,24.10
2019-04-20T08:21:40.786Z,23.80
2019-04-20T08:24:07.483Z,24.00
2019-04-20T08:26:28.311Z,24.40
2019-04-20T08:29:00.188Z,24.80
2019-04-20T08:31:56.276Z,25.00
2019-04-20T08:34:31.301Z,25.50
2019-04-20T08:37:01.407Z,25.30
2019-04-20T08:42:01.971Z,26.10
2019-04-20T08:47:15.883Z,27.00
2019-04-20T08:49:37.947Z,26.60
2019-04-20T08:52:21.311Z,26.20
2019-04-20T08:54:31.295Z,25.50
2019-04-20T08:56:51.147Z,25.00
2019-04-20T08:59:14.937Z,24.80
2019-04-20T09:01:44.643Z,24.70
2019-04-20T09:04:20.746Z,24.70
2019-04-20T09:07:02.579Z,24.70
2019-04-20T09:09:44.229Z,24.60
2019-04-20T09:12:06.446Z,24.60
2019-04-20T09:14:21.315Z,24.60
2019-04-20T09:17:02.907Z,24.90
2019-04-20T09:19:37.881Z,25.40
2019-04-20T09:22:28.276Z,26.20
2019-04-20T09:25:19.290Z,27.00
2019-04-20T09:27:29.570Z,27.50
2019-04-20T09:30:04.587Z,28.40
2019-04-20T09:32:40.292Z,29.10
2019-04-20T09:35:17.332Z,30.20
2019-04-20T09:37:53.172Z,30.40
2019-04-20T09:40:38.470Z,30.80
2019-04-20T09:42:50.695Z,31.60
2019-04-20T09:45:33.027Z,32.40
2019-04-20T09:47:56.624Z,32.60
2019-04-20T09:50:43.577Z,32.50
2019-04-20T09:53:08.760Z,32.80
2019-04-20T09:55:36.320Z,33.00
2019-04-20T09:58:09.958Z,32.70
2019-04-20T10:00:57.074Z,32.30
2019-04-20T10:03:12.811Z,32.70
2019-04-20T10:05:43.476Z,33.30
2019-04-20T10:08:13.942Z,33.20
2019-04-20T10:10:45.595Z,32.20
2019-04-20T10:13:13.477Z,32.40
2019-04-20T10:15:43.641Z,32.80
2019-04-20T10:18:14.102Z,33.30
2019-04-20T10:20:44.964Z,33.40
2019-04-20T10:23:14.367Z,33.80
2019-04-20T10:25:44.595Z,34.10
2019-04-20T10:28:13.920Z,33.60
2019-04-20T10:30:42.546Z,33.20
2019-04-20T10:33:11.220Z,33.70
2019-04-20T10:35:39.642Z,33.60
2019-04-20T10:38:16.179Z,33.30
2019-04-20T10:40:55.870Z,31.90
2019-04-20T10:43:16.359Z,31.00
2019-04-20T10:45:44.933Z,30.50
2019-04-20T10:48:15.046Z,29.60
2019-04-20T10:50:43.294Z,29.20
2019-04-20T10:53:12.190Z,29.30
2019-04-20T10:55:40.478Z,29.70
2019-04-20T10:58:09.398Z,30.40
2019-04-20T11:00:41.945Z,30.70
2019-04-20T11:03:13.586Z,31.40
2019-04-20T11:05:44.516Z,31.50
2019-04-20T11:08:14.966Z,31.60
2019-04-20T11:10:55.533Z,32.20
2019-04-20T11:13:15.281Z,32.50
2019-04-20T11:15:44.420Z,32.50
2019-04-20T11:18:13.412Z,32.40
2019-04-20T11:20:43.519Z,32.20
2019-04-20T11:23:12.405Z,31.90
2019-04-20T11:25:42.079Z,32.10
2019-04-20T11:28:10.674Z,32.20
2019-04-20T11:30:40.448Z,32.30
2019-04-20T11:33:09.916Z,32.40
2019-04-20T11:35:41.634Z,32.80
2019-04-20T11:38:12.480Z,32.70
2019-04-20T11:40:41.181Z,32.70
2019-04-20T11:43:11.475Z,32.60
2019-04-20T11:45:40.569Z,33.00
2019-04-20T11:48:09.613Z,32.80
2019-04-20T11:50:38.043Z,33.00
2019-04-20T11:53:06.625Z,32.90
2019-04-20T11:55:36.244Z,32.80
2019-04-20T11:58:05.890Z,32.80
2019-04-20T12:00:45.824Z,32.60
2019-04-20T12:03:24.764Z,32.30
2019-04-20T12:05:53.808Z,31.70
2019-04-20T12:08:23.157Z,31.80
2019-04-20T12:10:56.503Z,31.90
2019-04-20T12:13:24.687Z,32.30
2019-04-20T12:15:53.908Z,32.50
2019-04-20T12:18:23.383Z,32.50
2019-04-20T12:20:52.649Z,32.50
2019-04-20T12:23:22.307Z,32.70
2019-04-20T12:25:52.327Z,32.80
2019-04-20T12:28:21.932Z,32.80
2019-04-20T12:30:51.546Z,32.60
2019-04-20T12:33:21.849Z,32.20
2019-04-20T12:35:50.221Z,32.20
2019-04-20T12:38:19.181Z,32.30
2019-04-20T12:40:48.277Z,32.20
2019-04-20T12:43:17.439Z,32.30
2019-04-20T12:45:46.005Z,32.20
2019-04-20T12:48:15.591Z,32.10
2019-04-20T12:50:45.637Z,32.20
2019-04-20T12:53:14.837Z,32.10
2019-04-20T12:55:44.339Z,32.20
2019-04-20T12:58:14.480Z,31.60
2019-04-20T13:00:46.383Z,30.90
2019-04-20T13:03:14.862Z,30.60
2019-04-20T13:05:44.070Z,30.30
2019-04-20T13:08:23.322Z,30.40
2019-04-20T13:10:55.509Z,30.10
2019-04-20T13:13:32.794Z,29.90
2019-04-20T13:16:10.391Z,29.90
2019-04-20T13:18:45.473Z,29.70
2019-04-20T13:21:13.942Z,29.60
2019-04-20T13:23:42.894Z,29.50
2019-04-20T13:26:12.658Z,29.50
2019-04-20T13:28:43.025Z,29.60
2019-04-20T13:31:11.805Z,29.50
2019-04-20T13:33:41.196Z,29.50
2019-04-20T13:36:10.302Z,29.30
2019-04-20T13:38:40.312Z,29.50
2019-04-20T13:41:09.606Z,29.80
2019-04-20T13:43:39.651Z,29.90
2019-04-20T13:46:09.224Z,29.80
2019-04-20T13:48:39.054Z,29.90
2019-04-20T13:51:07.976Z,29.70
2019-04-20T13:53:37.169Z,29.70
2019-04-20T13:56:07.597Z,29.60
2019-04-20T13:59:14.339Z,29.40
2019-04-20T14:01:48.762Z,29.30
2019-04-20T14:04:20.966Z,29.20
2019-04-20T14:06:51.181Z,29.20
2019-04-20T14:09:21.451Z,29.30
2019-04-20T14:11:52.067Z,29.30
2019-04-20T14:14:21.381Z,29.20
2019-04-20T14:16:50.457Z,29.40
2019-04-20T14:19:21.028Z,29.40
2019-04-20T14:21:50.207Z,29.60
2019-04-20T14:24:19.146Z,29.50
2019-04-20T14:26:48.510Z,29.30
2019-04-20T14:29:17.119Z,29.10
2019-04-20T14:31:46.036Z,29.10
2019-04-20T14:34:15.148Z,28.70
2019-04-20T14:36:44.568Z,28.80
2019-04-20T14:39:14.114Z,29.10
2019-04-20T14:41:42.665Z,29.20
2019-04-20T14:44:12.083Z,29.20
2019-04-20T14:46:42.008Z,29.10
2019-04-20T14:49:12.486Z,28.70
2019-04-20T14:51:41.678Z,28.70
2019-04-20T14:54:11.719Z,28.60
2019-04-20T14:56:41.324Z,28.80
2019-04-20T14:59:19.870Z,29.00
2019-04-20T15:02:15.369Z,29.30
2019-04-20T15:04:45.289Z,28.80
2019-04-20T15:07:15.028Z,29.00
2019-04-20T15:09:44.892Z,28.60
2019-04-20T15:12:15.409Z,28.50
2019-04-20T15:14:44.947Z,28.30
2019-04-20T15:17:25.558Z,28.70
2019-04-20T15:20:23.423Z,29.00
2019-04-20T15:22:54.198Z,29.00
2019-04-20T15:25:23.374Z,29.20
2019-04-20T15:27:52.325Z,29.30
2019-04-20T15:30:22.291Z,29.30
2019-04-20T15:32:52.376Z,29.50
2019-04-20T15:35:23.304Z,29.40
2019-04-20T15:37:52.983Z,29.20
2019-04-20T15:40:23.388Z,29.10
2019-04-20T15:43:01.120Z,29.10
2019-04-20T15:45:23.300Z,29.20
2019-04-20T15:47:52.222Z,29.10
2019-04-20T15:50:22.165Z,29.00
2019-04-20T15:52:54.495Z,28.80
2019-04-20T15:55:29.626Z,28.80
2019-04-20T15:57:53.442Z,28.90
2019-04-20T16:00:22.671Z,28.90
2019-04-20T16:02:59.150Z,28.80
2019-04-20T16:05:51.412Z,28.60
2019-04-20T16:08:32.255Z,28.60
2019-04-20T16:11:04.681Z,28.70
2019-04-20T16:13:39.560Z,28.60
2019-04-20T16:16:07.667Z,28.50
2019-04-20T16:18:37.114Z,28.30
2019-04-20T16:21:11.673Z,28.30
2019-04-20T16:24:08.944Z,28.40
2019-04-20T16:27:09.681Z,28.20
2019-04-20T16:29:39.731Z,27.80
2019-04-20T16:32:08.946Z,27.90
2019-04-20T16:34:38.346Z,28.00
2019-04-20T16:37:08.491Z,27.80
2019-04-20T16:39:38.627Z,27.90
2019-04-20T16:42:11.978Z,27.50
2019-04-20T16:44:41.158Z,27.40
2019-04-20T16:47:10.191Z,27.60
2019-04-20T16:49:39.075Z,27.60
2019-04-20T16:52:07.718Z,27.70
2019-04-20T16:54:37.559Z,27.70
2019-04-20T16:57:08.190Z,27.40
2019-04-20T16:59:42.355Z,27.40
2019-04-20T17:02:08.546Z,27.30
2019-04-20T17:04:37.502Z,27.10
2019-04-20T17:07:33.161Z,27.00
2019-04-20T17:10:02.466Z,27.00
2019-04-20T17:12:33.655Z,26.80
2019-04-20T17:15:07.598Z,26.70
2019-04-20T17:17:37.688Z,26.70
2019-04-20T17:20:07.847Z,26.70
2019-04-20T17:22:37.224Z,26.60
2019-04-20T17:25:06.541Z,26.40
2019-04-20T17:27:59.252Z,26.30
2019-04-20T17:30:52.930Z,26.40
2019-04-20T17:33:53.442Z,26.20
2019-04-20T17:36:21.746Z,26.00
2019-04-20T17:38:52.628Z,26.00
2019-04-20T17:41:37.167Z,26.00
2019-04-20T17:44:05.919Z,25.80
2019-04-20T17:46:33.094Z,25.70
2019-04-20T17:49:04.182Z,25.60
2019-04-20T17:51:39.993Z,25.50
2019-04-20T17:54:20.088Z,25.50
2019-04-20T17:56:48.800Z,25.40
2019-04-20T17:59:17.469Z,25.20
2019-04-20T18:02:44.339Z,25.10
2019-04-20T18:05:47.818Z,25.00
2019-04-20T18:08:23.045Z,25.00
2019-04-20T18:10:41.445Z,24.70
2019-04-20T18:13:07.066Z,24.70
2019-04-20T18:15:48.863Z,24.60
2019-04-20T18:18:48.800Z,24.40
2019-04-20T18:21:24.465Z,24.10
2019-04-20T18:23:54.127Z,24.10
2019-04-20T18:26:43.248Z,24.00
2019-04-20T18:29:10.865Z,23.80
2019-04-20T18:31:33.498Z,23.80
2019-04-20T18:34:13.147Z,23.70
2019-04-20T18:36:42.832Z,23.40
2019-04-20T18:39:13.250Z,23.30
2019-04-20T18:41:46.524Z,23.20
2019-04-20T18:44:10.781Z,23.10
2019-04-20T18:47:03.508Z,23.00
2019-04-20T18:49:26.975Z,22.90
2019-04-20T18:51:41.812Z,22.80
2019-04-20T18:54:17.440Z,22.70
2019-04-20T18:56:45.873Z,22.40
2019-04-20T18:59:11.765Z,22.30
2019-04-20T19:01:43.106Z,22.20
2019-04-20T19:04:11.970Z,22.10
2019-04-20T19:06:41.446Z,22.00
2019-04-20T19:09:17.812Z,21.90
2019-04-20T19:11:45.671Z,21.70
2019-04-20T19:14:35.579Z,21.40
2019-04-20T19:17:23.114Z,21.30
2019-04-20T19:19:56.171Z,21.30
2019-04-20T19:22:21.857Z,21.20
2019-04-20T19:24:51.779Z,21.20
2019-04-20T19:27:30.262Z,21.10
2019-04-20T19:30:01.172Z,20.90
2019-04-20T19:32:38.133Z,20.90
2019-04-20T19:35:01.325Z,20.70
2019-04-20T19:37:28.525Z,20.60
2019-04-20T19:40:09.566Z,20.60
2019-04-20T19:42:39.695Z,20.40
2019-04-20T19:45:25.213Z,20.30
2019-04-20T19:47:42.878Z,20.20
2019-04-20T19:50:25.171Z,20.10
2019-04-20T19:52:51.512Z,20.00
2019-04-20T19:55:14.367Z,19.90
2019-04-20T19:57:45.166Z,19.80
2019-04-20T19:59:59.858Z,19.70
2019-04-20T20:02:29.884Z,19.50
2019-04-20T20:05:05.428Z,19.40
2019-04-20T20:07:38.007Z,19.30
2019-04-20T20:10:06.915Z,19.20
2019-04-20T20:12:33.583Z,19.20
2019-04-20T20:15:11.422Z,19.10
2019-04-20T20:18:03.623Z,19.00
2019-04-20T20:20:33.681Z,18.90
2019-04-20T20:22:45.363Z,18.90
2019-04-20T20:25:12.801Z,18.80
2019-04-20T20:27:49.133Z,18.70
2019-04-20T20:30:23.047Z,18.60
2019-04-20T20:33:01.565Z,18.50
2019-04-20T20:35:21.866Z,18.50
2019-04-20T20:37:50.158Z,18.50
2019-04-20T20:40:23.293Z,18.40
2019-04-20T20:42:58.073Z,18.20
2019-04-20T20:45:26.316Z,18.10
2019-04-20T20:48:03.880Z,18.00
2019-04-20T20:50:39.451Z,18.00
2019-04-20T20:53:00.780Z,18.00
2019-04-20T20:55:29.525Z,17.90
2019-04-20T20:58:01.156Z,17.90
2019-04-20T21:00:35.884Z,17.80
2019-04-20T21:02:59.337Z,17.70
2019-04-20T21:05:21.950Z,17.60
2019-04-20T21:07:51.424Z,17.50
2019-04-20T21:10:26.913Z,17.50
2019-04-20T21:12:55.402Z,17.50
2019-04-20T21:15:26.389Z,17.50
2019-04-20T21:18:20.562Z,17.40
2019-04-20T21:20:52.010Z,17.40
2019-04-20T21:23:13.583Z,17.30
2019-04-20T21:25:34.531Z,17.20
2019-04-20T21:28:00.665Z,17.20
2019-04-20T21:30:36.236Z,17.10
2019-04-20T21:33:04.222Z,17.10
2019-04-20T21:35:39.105Z,17.10
2019-04-20T21:38:08.034Z,17.00
2019-04-20T21:40:39.560Z,17.00
2019-04-20T21:43:07.423Z,17.00
2019-04-20T21:45:37.677Z,16.80
2019-04-20T21:48:09.632Z,16.90
2019-04-20T21:50:56.512Z,16.70
2019-04-20T21:53:14.520Z,16.60
2019-04-20T21:55:37.258Z,16.60
2019-04-20T21:58:07.234Z,16.60
2019-04-20T22:01:05.101Z,16.70
2019-04-20T22:03:24.683Z,16.60
2019-04-20T22:06:06.804Z,16.60
2019-04-20T22:08:39.348Z,16.50
2019-04-20T22:11:08.032Z,16.40
2019-04-20T22:13:40.137Z,16.40
2019-04-20T22:16:12.582Z,16.30
2019-04-20T22:18:51.814Z,16.10
2019-04-20T22:21:21.727Z,16.00
2019-04-20T22:23:59.863Z,16.00
2019-04-20T22:26:26.811Z,15.90
2019-04-20T22:28:44.690Z,15.80
2019-04-20T22:31:14.037Z,15.80
2019-04-20T22:33:45.443Z,15.70
2019-04-20T22:36:16.556Z,15.60
2019-04-20T22:39:05.262Z,15.60
2019-04-20T22:41:38.659Z,15.50
2019-04-20T22:44:14.560Z,15.40
2019-04-20T22:46:40.994Z,15.40
2019-04-20T22:49:29.491Z,15.40
2019-04-20T22:51:50.905Z,15.50
2019-04-20T22:54:28.849Z,15.30
2019-04-20T22:56:49.975Z,15.30
2019-04-20T22:59:16.078Z,15.30
2019-04-20T23:01:49.885Z,15.30
2019-04-20T23:04:12.830Z,15.20
2019-04-20T23:06:46.270Z,15.20
2019-04-20T23:09:14.704Z,15.20
2019-04-20T23:11:42.672Z,15.10
2019-04-20T23:14:11.455Z,15.00
2019-04-20T23:16:45.472Z,15.00
2019-04-20T23:19:14.214Z,15.00
2019-04-20T23:21:48.730Z,14.90
2019-04-20T23:24:15.345Z,14.80
2019-04-20T23:26:47.194Z,14.80
2019-04-20T23:29:15.385Z,14.70
2019-04-20T23:31:50.053Z,14.60
2019-04-20T23:34:20.101Z,14.60
2019-04-20T23:36:48.496Z,14.50
2019-04-20T23:39:15.360Z,14.50
2019-04-20T23:41:53.665Z,14.50
2019-04-20T23:44:27.252Z,14.40
2019-04-20T23:47:09.716Z,14.40
2019-04-20T23:49:54.491Z,14.30
2019-04-20T23:52:31.666Z,14.40
2019-04-20T23:54:46.665Z,14.30
2019-04-20T23:57:08.133Z,14.20
2019-04-20T23:59:40.833Z,14.10
